Accident Hawker 900XP N900VA,
ASN logo
ASN Wikibase Occurrence # 351542
 
This information is added by users of ASN. Neither ASN nor the Flight Safety Foundation are responsible for the completeness or correctness of this information. If you feel this information is incomplete or incorrect, you can submit corrected information.

Date:Wednesday 7 February 2024
Time:17:47 UTC
Type:Silhouette image of generic H25B model; specific model in this crash may look slightly different    
Hawker 900XP
Owner/operator:Clay Lacy Aviation
Registration: N900VA
MSN: HA-0020
Year of manufacture:2007
Engine model:Honeywell TFE731-50R
Fatalities:Fatalities: 2 / Occupants: 2
Aircraft damage: Destroyed
Category:Accident
Location:near Loma, CO -   United States of America
Phase: En route
Nature:Unknown
Departure airport:Grand Junction Regional Airport, CO (GJT/KGJT)
Destination airport:Tacoma, WA
Investigating agency: NTSB
Confidence Rating: Information is only available from news, social media or unofficial sources
Narrative:
A Hawker 900XP, N900VA, was destroyed when it impacted terrain near Loma, Colorado. Both pilots were killed.

ADS-B data suggests that the aircraft took off from Grand Junction Airport, CO (GJT) at 17:37 UTC. The last data point was recorded about 17:47 UTC with the aircraft at a high rate of descent, about 46 km WNW of GJT.

METAR:

Weather at the departure airport about the departure (1737Z) and accident time (1747Z):
KGJT 071753Z 35008KT 10SM -RA BKN037 OVC055 07/02 A2959 RMK AO2 RAE08B26 SLP994 P0000 60001 T00670017 10083 20044 51013
KGJT 071653Z 17009KT 10SM -RA BKN047 OVC085 07/00 A2957 RMK AO2 RAB37 SLP988 P0001 T00720000

Sources:

https://www.kkco11news.com/2024/02/07/possible-plane-crash-reported-near-loma/

https://globe.adsbexchange.com/?icao=ac7108&lat=39.123&lon=-108.648&zoom=8.4&showTrace=2024-02-07&trackLabels

Location

Media:

Hawker Beechcraft Hawker 900XP cnHA-0020 N900VA

Revision history:

Date/timeContributorUpdates
07-Feb-2024 19:53 Captain Adam Added
07-Feb-2024 20:50 nhofmann54 Updated [Registration, Cn, Operator, Phase, Departure airport, Source, Damage]
07-Feb-2024 20:56 ASN Updated [Time, Phase, Departure airport, Narrative]
07-Feb-2024 21:00 ASN Updated [Source]
07-Feb-2024 21:40 Anon. Updated [Source]
07-Feb-2024 22:48 Captain Adam Updated [Total fatalities, Destination airport, Embed code, Narrative, Category]
08-Feb-2024 08:55 ASN Updated [Embed code]
19-Feb-2024 21:00 Anon. Updated [Operator]

Corrections or additions? ... Edit this accident description

The Aviation Safety Network is an exclusive service provided by:
Quick Links:

CONNECT WITH US: FSF on social media FSF Facebook FSF Twitter FSF Youtube FSF LinkedIn FSF Instagram

©2024 Flight Safety Foundation

1920 Ballenger Av, 4th Fl.
Alexandria, Virginia 22314
www.FlightSafety.org